Time;durP1;ratioP1;P1;durP2;ratioP2;P2;SDS_P1;SDS_P2;PMS_P1;PMS_P2;Temp;Humidity;BMP_temperature;BMP_pressure;BME280_temperature;BME280_humidity;BME280_pressure;Samples;Min_cycle;Max_cycle;Signal;HPM_P1;HPM_P2
2022/07/13 00:01:57;;;;;;;;;7.00;5.00;;;;;30.58;29.13;101853.03;5080963;28;45308;-91
2022/07/13 00:04:23;;;;;;;;;3.75;3.50;;;;;30.55;29.13;101854.00;5104623;27;45349;-91
2022/07/13 00:06:49;;;;;;;;;5.25;4.00;;;;;30.48;29.79;101844.34;5101828;27;47496;-90
2022/07/13 00:09:15;;;;;;;;;5.50;5.50;;;;;30.52;29.59;101853.16;5085377;28;45271;-90
2022/07/13 00:11:40;;;;;;;;;5.00;5.00;;;;;30.51;29.97;101849.59;5102551;27;45348;-91
2022/07/13 00:14:06;;;;;;;;;5.25;3.50;;;;;30.50;30.09;101847.88;5085699;28;45267;-90
2022/07/13 00:16:32;;;;;;;;;5.00;5.00;;;;;30.44;30.49;101834.63;5102637;27;46585;-90
2022/07/13 00:18:58;;;;;;;;;4.00;4.00;;;;;30.46;30.51;101846.16;5085568;28;45352;-90
2022/07/13 00:21:24;;;;;;;;;4.00;4.00;;;;;30.46;30.55;101850.59;5097461;27;45299;-90
2022/07/13 00:23:53;;;;;;;;;6.50;4.75;;;;;30.34;30.70;101841.97;5078457;28;45287;-91
2022/07/13 00:26:19;;;;;;;;;5.00;5.00;;;;;30.34;30.62;101844.66;5080179;28;46901;-90
2022/07/13 00:28:45;;;;;;;;;4.75;4.00;;;;;30.32;30.81;101848.25;5076763;28;45280;-90
2022/07/13 00:31:11;;;;;;;;;4.75;4.50;;;;;30.23;30.67;101844.00;5093854;27;45382;-90
2022/07/13 00:33:37;;;;;;;;;4.75;4.75;;;;;30.24;30.36;101851.97;5095152;27;45271;-90
2022/07/13 00:36:03;;;;;;;;;4.25;4.25;;;;;30.18;31.31;101841.41;5098195;27;46948;-90
2022/07/13 00:38:29;;;;;;;;;5.25;4.25;;;;;30.15;31.12;101838.81;5082827;27;45242;-89
2022/07/13 00:40:54;;;;;;;;;2.50;1.50;;;;;30.12;31.10;101833.53;5085708;27;45269;-90
2022/07/13 00:43:20;;;;;;;;;4.25;4.25;;;;;30.15;31.73;101833.47;5085560;27;45488;-90
2022/07/13 00:45:46;;;;;;;;;5.75;5.75;;;;;30.13;31.74;101826.41;5082297;28;48050;-90
2022/07/13 00:48:12;;;;;;;;;4.75;4.75;;;;;30.07;31.88;101822.94;5102133;27;45407;-90
2022/07/13 00:50:39;;;;;;;;;3.50;3.25;;;;;30.05;32.06;101823.91;5087129;28;45417;-91
2022/07/13 00:53:05;;;;;;;;;4.50;4.25;;;;;30.05;32.04;101826.56;5103066;27;45445;-91
2022/07/13 00:55:32;;;;;;;;;4.25;4.25;;;;;30.03;32.23;101834.59;5088471;28;47189;-89
2022/07/13 00:58:01;;;;;;;;;4.50;4.00;;;;;29.99;31.89;101834.69;5088007;28;45256;-91
2022/07/13 01:00:27;;;;;;;;;4.25;4.25;;;;;29.92;32.11;101829.47;5084838;28;45376;-90
2022/07/13 01:02:53;;;;;;;;;4.50;4.25;;;;;29.92;31.67;101826.78;5085244;28;45407;-90
2022/07/13 01:05:19;;;;;;;;;5.75;4.50;;;;;29.89;32.03;101820.63;5081612;28;47665;-91
2022/07/13 01:07:45;;;;;;;;;4.00;4.00;;;;;29.90;31.86;101823.25;5080322;28;45405;-91
2022/07/13 01:10:12;;;;;;;;;8.25;6.00;;;;;29.93;32.52;101822.31;5079678;28;45236;-92
2022/07/13 01:12:40;;;;;;;;;8.75;4.25;;;;;29.91;32.54;101818.81;5083068;28;45598;-91
2022/07/13 01:15:08;;;;;;;;;6.00;5.00;;;;;29.88;32.70;101827.75;5086441;28;46996;-91
2022/07/13 01:17:36;;;;;;;;;7.00;5.75;;;;;29.87;33.00;101825.97;5110795;27;45780;-91
2022/07/13 01:20:03;;;;;;;;;6.75;4.50;;;;;29.86;33.06;101828.69;5097895;28;44713;-91
2022/07/13 01:22:45;;;;;;;;;6.25;5.00;;;;;29.81;33.36;101826.13;5115191;27;45224;-90
2022/07/13 01:25:13;;;;;;;;;6.00;6.00;;;;;29.79;33.22;101822.59;5100485;28;46870;-90
2022/07/13 01:27:41;;;;;;;;;4.25;4.25;;;;;29.78;33.08;101823.50;5094227;28;45248;-91
2022/07/13 01:30:08;;;;;;;;;6.00;5.00;;;;;29.78;33.35;101828.84;5083984;28;45398;-90
2022/07/13 01:32:45;;;;;;;;;4.75;4.75;;;;;29.77;34.05;101829.75;5082404;27;45305;-91
2022/07/13 01:35:11;;;;;;;;;5.25;4.50;;;;;29.72;33.63;101813.81;5081953;28;47785;-91
2022/07/13 01:37:37;;;;;;;;;4.00;4.00;;;;;29.78;33.15;101826.16;5086416;28;45335;-91
2022/07/13 01:40:04;;;;;;;;;5.50;4.75;;;;;29.78;33.32;101824.41;5087481;28;45444;-90
2022/07/13 01:42:30;;;;;;;;;6.00;4.75;;;;;29.76;33.76;101819.97;5104742;27;45283;-91
2022/07/13 01:44:57;;;;;;;;;4.50;4.50;;;;;29.71;33.29;101809.38;5082673;28;47507;-91
2022/07/13 01:47:23;;;;;;;;;4.25;4.00;;;;;29.68;33.66;101801.47;5079839;28;45449;-90
2022/07/13 01:49:49;;;;;;;;;4.25;4.00;;;;;29.68;33.02;101812.16;5079561;28;45443;-90
2022/07/13 01:52:15;;;;;;;;;4.75;4.75;;;;;29.63;32.81;101803.34;5080174;28;45378;-90
2022/07/13 01:54:41;;;;;;;;;5.25;4.25;;;;;29.66;33.20;101808.63;5079818;28;47642;-90
2022/07/13 01:57:07;;;;;;;;;4.50;4.50;;;;;29.64;32.52;101805.97;5078776;28;45357;-91
2022/07/13 01:59:32;;;;;;;;;4.50;4.50;;;;;29.64;33.06;101807.75;5082437;28;45255;-91
2022/07/13 02:01:58;;;;;;;;;7.25;4.50;;;;;29.61;32.73;101800.69;5085217;28;45284;-90
2022/07/13 02:04:24;;;;;;;;;5.50;3.50;;;;;29.59;32.84;101801.66;5080893;28;46699;-90
2022/07/13 02:06:50;;;;;;;;;3.25;3.25;;;;;29.59;33.64;101798.97;5095813;27;45273;-91
2022/07/13 02:09:16;;;;;;;;;3.25;3.25;;;;;29.61;32.98;101800.69;5096402;27;45263;-91
2022/07/13 02:11:41;;;;;;;;;5.50;4.25;;;;;29.63;33.09;101796.22;5096731;27;45687;-91
2022/07/13 02:14:08;;;;;;;;;5.25;3.50;;;;;29.61;33.40;101790.03;5096231;27;47880;-91
2022/07/13 02:16:33;;;;;;;;;4.00;4.00;;;;;29.57;33.08;101787.44;5079474;28;45292;-91
2022/07/13 02:18:59;;;;;;;;;4.00;3.00;;;;;29.63;32.78;101793.56;5079775;28;45780;-90
2022/07/13 02:21:24;;;;;;;;;4.50;3.00;;;;;29.63;31.84;101790.88;5084191;28;45332;-91
2022/07/13 02:23:51;;;;;;;;;2.75;2.75;;;;;29.61;32.09;101789.13;5093077;28;47607;-91
2022/07/13 02:26:16;;;;;;;;;6.25;5.00;;;;;29.58;31.78;101787.41;5094193;28;45760;-89
2022/07/13 02:28:42;;;;;;;;;3.25;3.25;;;;;29.55;31.97;101783.94;5091689;28;44616;-91
2022/07/13 02:31:07;;;;;;;;;4.50;3.25;;;;;29.48;31.98;101777.81;5086902;28;45296;-91
2022/07/13 02:33:33;;;;;;;;;3.75;3.75;;;;;29.49;31.25;101784.94;5087869;28;47013;-91
2022/07/13 02:36:01;;;;;;;;;3.50;3.00;;;;;29.47;32.02;101784.97;5090333;28;45010;-90
2022/07/13 02:38:27;;;;;;;;;3.00;2.00;;;;;29.46;31.97;101780.53;5080739;28;45315;-90
2022/07/13 02:40:52;;;;;;;;;3.25;3.00;;;;;29.43;31.72;101780.59;5078900;28;45562;-89
2022/07/13 02:43:18;;;;;;;;;3.00;3.00;;;;;29.43;31.77;101785.03;5078606;28;46732;-90
2022/07/13 02:45:44;;;;;;;;;3.50;2.00;;;;;29.41;31.01;101778.88;5074837;28;45343;-89
2022/07/13 02:48:09;;;;;;;;;4.00;4.00;;;;;29.39;31.92;101776.19;5059256;28;45406;-90
2022/07/13 02:50:35;;;;;;;;;2.00;1.50;;;;;29.39;32.04;101780.66;5058825;28;45602;-89
2022/07/13 02:53:00;;;;;;;;;3.50;2.00;;;;;29.40;31.68;101780.63;5058408;28;47585;-88
2022/07/13 02:55:26;;;;;;;;;3.00;3.00;;;;;29.40;31.50;101777.09;5078036;28;45317;-91
2022/07/13 02:57:52;;;;;;;;;3.00;3.00;;;;;29.40;32.28;101783.31;5071272;28;45209;-91
2022/07/13 03:00:17;;;;;;;;;5.00;3.75;;;;;29.40;32.13;101795.78;5067392;28;45601;-90
2022/07/13 03:02:43;;;;;;;;;4.25;4.25;;;;;29.38;32.51;101786.91;5077674;28;47045;-88
2022/07/13 03:05:08;;;;;;;;;3.50;3.25;;;;;29.31;32.74;101779.00;5078424;28;45265;-90
2022/07/13 03:07:34;;;;;;;;;4.75;3.75;;;;;29.31;32.68;101787.00;5083927;28;44761;-91
2022/07/13 03:10:00;;;;;;;;;5.00;4.00;;;;;29.24;33.01;101776.47;5086996;28;45481;-90
2022/07/13 03:12:26;;;;;;;;;5.25;4.25;;;;;29.29;33.24;101782.59;5090778;28;47857;-92
2022/07/13 03:14:52;;;;;;;;;3.00;3.00;;;;;29.27;33.78;101787.97;5081745;28;45350;-91
2022/07/13 03:17:18;;;;;;;;;5.00;3.00;;;;;29.27;34.09;101789.72;5078177;28;45553;-90
2022/07/13 03:19:44;;;;;;;;;5.25;3.75;;;;;29.23;34.84;101782.72;5079551;28;45716;-91
2022/07/13 03:22:09;;;;;;;;;3.25;3.25;;;;;29.19;34.68;101774.75;5063179;28;48067;-91
2022/07/13 03:24:35;;;;;;;;;3.00;3.00;;;;;29.21;34.66;101784.50;5057876;28;45455;-91
2022/07/13 03:27:01;;;;;;;;;6.00;5.50;;;;;29.21;34.29;101780.06;5059308;28;45402;-92
2022/07/13 03:29:27;;;;;;;;;6.00;5.00;;;;;29.23;34.40;101782.72;5070029;28;45184;-91
2022/07/13 03:31:53;;;;;;;;;3.00;3.00;;;;;29.23;35.07;101782.72;5068732;28;46976;-92
2022/07/13 03:34:19;;;;;;;;;6.00;5.00;;;;;29.23;34.79;101775.56;5067400;28;45407;-93
2022/07/13 03:36:45;;;;;;;;;4.00;4.00;;;;;29.23;34.45;101780.03;5068515;28;45253;-90
2022/07/13 03:39:11;;;;;;;;;7.00;4.50;;;;;29.18;34.76;101772.13;5067509;28;45291;-91
2022/07/13 03:41:37;;;;;;;;;7.50;4.25;;;;;29.24;34.27;101781.81;5069188;28;45505;-92
2022/07/13 03:44:03;;;;;;;;;3.50;3.50;;;;;29.22;34.40;101779.16;5066640;28;45532;-92
2022/07/13 03:46:29;;;;;;;;;3.00;3.00;;;;;29.18;34.40;101778.31;5063751;28;45338;-92
2022/07/13 03:48:55;;;;;;;;;5.00;2.25;;;;;29.16;34.10;101773.94;5061062;28;45648;-91
2022/07/13 03:51:21;;;;;;;;;7.75;3.00;;;;;29.19;34.51;101790.75;5060397;28;45413;-92
2022/07/13 03:53:47;;;;;;;;;3.75;3.75;;;;;29.20;34.61;101797.00;5064051;28;45354;-92
2022/07/13 03:56:13;;;;;;;;;2.50;2.00;;;;;29.10;34.20;101780.25;5065936;28;45226;-91
2022/07/13 03:58:39;;;;;;;;;5.25;5.25;;;;;29.11;34.58;101787.34;5066505;28;45222;-91
2022/07/13 04:01:05;;;;;;;;;4.25;4.25;;;;;29.12;34.76;101789.13;5062621;28;45304;-87
2022/07/13 04:03:31;;;;;;;;;4.50;4.50;;;;;29.09;34.35;101789.16;5052803;28;45652;-92
2022/07/13 04:05:57;;;;;;;;;4.00;4.00;;;;;28.98;34.72;101784.03;5073737;28;45421;-92
2022/07/13 04:08:23;;;;;;;;;4.00;3.25;;;;;29.00;34.87;101786.66;5078746;27;45439;-92
2022/07/13 04:10:49;;;;;;;;;4.25;4.25;;;;;29.03;35.62;101792.81;5075054;28;47515;-76
2022/07/13 04:13:14;;;;;;;;;6.25;4.75;;;;;29.00;35.58;101778.66;5075671;28;45295;-78
2022/07/13 04:15:40;;;;;;;;;6.75;4.25;;;;;29.09;35.84;101793.63;5078848;27;45507;-79
2022/07/13 04:18:06;;;;;;;;;4.50;3.25;;;;;29.06;35.80;101791.00;5079993;28;45336;-77
2022/07/13 04:20:32;;;;;;;;;8.25;6.75;;;;;28.97;34.90;101786.69;5079960;28;45557;-77
2022/07/13 04:22:59;;;;;;;;;4.25;4.25;;;;;28.92;35.54;101778.78;5079357;28;45215;-80
2022/07/13 04:25:24;;;;;;;;;5.25;4.25;;;;;28.97;35.66;101784.03;5079067;28;45193;-78
2022/07/13 04:27:50;;;;;;;;;6.50;5.75;;;;;28.96;35.72;101779.59;5079054;27;45331;-77
2022/07/13 04:30:16;;;;;;;;;5.50;5.50;;;;;28.95;36.64;101784.06;5078578;28;46143;-76
2022/07/13 04:32:41;;;;;;;;;6.50;5.25;;;;;28.97;36.23;101782.25;5078661;27;45426;-76
2022/07/13 04:35:07;;;;;;;;;6.50;5.25;;;;;28.92;36.48;101777.91;5081041;28;45361;-76
2022/07/13 04:37:35;;;;;;;;;6.00;4.50;;;;;28.92;36.08;101775.25;5083632;28;45339;-76
2022/07/13 04:40:01;;;;;;;;;5.50;5.00;;;;;28.91;36.47;101776.16;5083971;27;45560;-75
2022/07/13 04:42:26;;;;;;;;;11.75;9.25;;;;;28.89;37.06;101778.81;5080492;27;45332;-76
2022/07/13 04:44:52;;;;;;;;;8.25;7.00;;;;;28.86;37.86;101781.56;5079531;28;45380;-77
